FW3698 Weather Reports


Display with metric or nautical units.
time (UTC)temp
F
wind
direction
speed
MPH
gust
MPH
rain 1hr
in
rain 24hr
in
rain mn
in
humidity
%
barometer
mb
20200331102122 39 158 0.0 0.0 0.00 0.22 0.00 95 1011.7
20200331101120 39 158 0.0 0.0 0.00 0.24 0.00 95 1011.8
20200331100120 39 158 0.0 0.0 0.00 0.26 0.00 95 1011.9
20200331095124 39 158 0.0 0.0 0.00 0.26 0.00 95 1011.9
20200331094121 39 158 0.0 0.0 0.00 0.26 0.00 95 1011.7
20200331093120 39 158 0.0 0.0 0.00 0.26 0.00 95 1011.8
20200331092124 39 158 0.0 0.0 0.00 0.26 0.00 95 1011.7
20200331091120 39 158 0.0 0.0 0.00 0.26 0.00 95 1011.7
20200331090120 39 135 0.0 0.0 0.00 0.26 0.00 95 1011.6
20200331085120 39 158 0.0 0.0 0.00 0.26 0.00 95 1011.6
20200331083120 40 158 0.0 0.0 0.00 0.29 0.00 95 1011.4
20200331082120 40 158 0.0 0.0 0.00 0.30 0.00 95 1011.4
20200331081120 40 158 0.0 0.0 0.00 0.31 0.00 95 1011.3
20200331080120 40 158 0.0 0.0 0.00 0.31 0.00 95 1011.4
20200331075120 40 158 0.0 0.0 0.00 0.31 0.00 95 1011.4
20200331074120 40 158 0.0 0.0 0.00 0.31 0.00 95 1011.3
20200331073121 40 158 0.0 0.0 0.00 0.31 0.00 95 1011.2
20200331072121 40 158 0.0 0.0 0.00 0.31 0.00 95 1011.2
20200331071120 40 158 0.0 0.0 0.00 0.31 0.00 95 1011.2
20200331070121 39 158 0.0 0.0 0.00 0.31 0.00 95 1011.1
20200331065121 39 158 0.0 0.0 0.00 0.31 0.31 95 1011.1
20200331064121 39 158 0.0 0.0 0.00 0.31 0.31 95 1011.1
20200331063122 39 158 0.0 0.0 0.00 0.31 0.31 95 1011.1
20200331062121 39 158 0.0 0.0 0.00 0.31 0.31 95 1011.1
20200331061121 39 158 0.0 0.0 0.00 0.31 0.31 95 1011.1
20200331060121 39 158 0.0 0.0 0.00 0.31 0.31 95 1011.0
20200331055120 40 158 0.0 0.0 0.00 0.31 0.31 95 1011.0
20200331054120 40 158 0.0 0.0 0.00 0.31 0.31 95 1011.1
20200331053121 40 158 0.0 0.0 0.00 0.31 0.31 95 1010.9
20200331052121 41 158 0.0 0.0 0.00 0.31 0.31 95 1010.9
20200331051121 41 158 0.0 0.0 0.00 0.31 0.31 95 1010.9
20200331050121 42 158 0.0 0.0 0.00 0.31 0.31 95 1010.8
20200331045121 42 158 0.0 0.0 0.00 0.31 0.31 95 1010.8
20200331044121 42 158 0.0 0.0 0.00 0.31 0.31 95 1010.7
20200331043121 43 158 0.0 0.0 0.00 0.31 0.31 93 1010.6
20200331042120 43 135 0.0 0.0 0.00 0.31 0.31 93 1010.5
20200331041121 43 158 0.0 0.0 0.00 0.31 0.31 93 1010.5
20200331040121 43 135 0.0 0.0 0.00 0.31 0.31 93 1010.3
20200331035121 43 126 0.0 3.0 0.00 0.31 0.31 93 1010.3
20200331034120 43 135 0.0 2.0 0.00 0.31 0.31 93 1010.3
20200331033120 43 135 0.0 1.0 0.00 0.31 0.31 92 1010.2
20200331032121 42 135 0.0 2.0 0.00 0.31 0.31 92 1010.1
20200331031122 43 119 0.0 3.0 0.00 0.31 0.31 92 1010.1
20200331030121 43 158 0.0 0.0 0.00 0.31 0.31 91 1009.8
20200331025121 43 158 0.0 0.0 0.00 0.31 0.31 92 1009.8
20200331024121 43 135 0.0 2.0 0.00 0.31 0.31 91 1009.7
20200331023121 44 135 0.0 1.0 0.00 0.31 0.31 90 1009.8
20200331022121 44 135 0.0 0.0 0.00 0.31 0.31 88 1009.8
20200331021122 45 135 0.0 1.0 0.00 0.31 0.31 86 1009.7
20200331020121 45 135 0.0 0.0 0.00 0.31 0.31 85 1009.5
20200331015121 46 113 0.0 4.0 0.00 0.31 0.31 83 1009.5
20200331014121 46 123 0.0 3.0 0.00 0.31 0.31 83 1009.4
20200331013121 47 127 0.0 2.0 0.00 0.31 0.31 80 1009.4
20200331012121 47 107 0.0 4.0 0.00 0.31 0.31 80 1009.3
20200331011121 48 115 1.0 4.0 0.00 0.31 0.31 77 1009.2
20200331010121 49 114 1.0 3.0 0.00 0.31 0.31 72 1009.1
20200331005121 49 202 0.0 2.0 0.00 0.31 0.31 76 1009.1
20200331004121 48 148 0.0 3.0 0.00 0.31 0.31 76 1008.9
20200331003121 47 158 0.0 0.0 0.00 0.31 0.31 78 1008.9
20200331002121 48 158 0.0 0.0 0.00 0.31 0.31 77 1009.0
20200331001122 48 182 1.0 3.0 0.00 0.31 0.31 76 1008.7
20200330235122 48 123 3.0 8.0 0.00 0.31 0.31 78 1008.8
20200330234121 49 127 2.0 7.0 0.00 0.31 0.31 74 1008.6
20200330233121 52 206 3.0 9.0 0.00 0.31 0.31 71 1008.6
20200330232121 49 117 2.0 8.0 0.00 0.31 0.31 75 1008.5
20200330231122 48 153 1.0 5.0 0.00 0.31 0.31 78 1008.3
20200330230122 47 134 2.0 5.0 0.00 0.31 0.31 79 1008.0
20200330225122 48 120 3.0 7.0 0.00 0.31 0.31 79 1008.0
20200330224122 48 138 2.0 7.0 0.00 0.31 0.31 79 1007.9
20200330223122 48 182 2.0 4.0 0.00 0.31 0.31 81 1007.9
20200330222121 46 145 1.0 5.0 0.00 0.31 0.31 81 1007.8
20200330221121 46 138 2.0 7.0 0.00 0.31 0.31 80 1007.9
20200330220121 46 160 2.0 6.0 0.00 0.31 0.31 82 1007.8
20200330215121 45 135 2.0 7.0 0.00 0.31 0.31 83 1007.8
20200330214122 46 124 2.0 4.0 0.00 0.31 0.31 82 1007.6
20200330213121 46 94 3.0 6.0 0.00 0.31 0.31 82 1007.3
20200330212121 46 337 4.0 9.0 0.00 0.31 0.31 82 1007.4
20200330211122 46 337 3.0 7.0 0.00 0.31 0.31 82 1007.2
20200330210121 47 125 3.0 6.0 0.00 0.31 0.31 82 1007.0
20200330205121 48 104 4.0 9.0 0.00 0.31 0.31 79 1007.0
20200330204121 48 136 3.0 7.0 0.00 0.31 0.31 77 1006.8
20200330203209 49 151 1.0 6.0 0.00 0.31 0.31 80 1006.7
20200330202121 47 138 1.0 3.0 0.00 0.31 0.31 79 1006.8
20200330201121 47 141 1.0 5.0 0.00 0.31 0.31 83 1006.6
20200330200124 47 158 1.0 5.0 0.00 0.31 0.31 83 1006.6
20200330195122 46 154 2.0 5.0 0.00 0.31 0.31 81 1006.6
20200330194124 47 130 2.0 5.0 0.00 0.31 0.31 78 1006.5
20200330193122 47 114 1.0 4.0 0.00 0.31 0.31 77 1006.3
20200330192124 47 139 1.0 5.0 0.00 0.31 0.31 76 1006.2
20200330191122 47 138 2.0 4.0 0.00 0.31 0.31 78 1006.1
20200330190122 47 144 2.0 6.0 0.00 0.31 0.31 83 1006.0
20200330185122 47 146 1.0 4.0 0.00 0.31 0.31 82 1006.0
20200330184122 46 153 1.0 3.0 0.00 0.31 0.31 85 1005.8
20200330183124 46 124 1.0 4.0 0.00 0.31 0.31 82 1005.5
20200330182122 46 148 2.0 6.0 0.00 0.31 0.31 83 1005.2
20200330181124 46 128 1.0 3.0 0.00 0.31 0.31 86 1005.2
20200330180122 45 133 1.0 3.0 0.00 0.31 0.31 91 1005.3
20200330175122 45 125 1.0 4.0 0.00 0.31 0.31 86 1005.3
20200330174123 45 132 1.0 7.0 0.00 0.31 0.31 85 1005.1
20200330173122 45 159 2.0 4.0 0.00 0.31 0.31 88 1005.0
20200330172124 46 149 2.0 5.0 0.00 0.31 0.31 86 1004.6
20200330171122 44 130 1.0 4.0 0.00 0.31 0.31 92 1004.6
20200330170124 44 165 0.0 3.0 0.00 0.31 0.31 93 1004.3
20200330165122 44 136 0.0 3.0 0.00 0.31 0.31 90 1004.3
20200330164123 44 133 2.0 5.0 0.00 0.31 0.31 93 1003.8
20200330163123 43 134 2.0 4.0 0.00 0.31 0.31 95 1003.6
20200330162122 43 148 1.0 5.0 0.00 0.31 0.31 95 1003.6
20200330161124 43 146 1.0 4.0 0.00 0.31 0.31 95 1003.3
20200330160122 43 137 2.0 4.0 0.00 0.31 0.31 95 1003.1
20200330155124 43 129 0.0 3.0 0.00 0.31 0.31 95 1003.1
20200330154122 43 143 1.0 6.0 0.00 0.31 0.31 95 1002.7
20200330153122 42 136 2.0 4.0 0.00 0.31 0.31 95 1002.6
20200330152122 42 135 1.0 5.0 0.00 0.31 0.31 95 1002.2
20200330151123 42 135 1.0 3.0 0.00 0.31 0.31 95 1001.9
20200330150125 41 135 1.0 2.0 0.00 0.31 0.31 95 1001.5
20200330145122 41 139 1.0 4.0 0.00 0.31 0.31 95 1001.5
20200330144125 41 135 1.0 3.0 0.00 0.31 0.31 95 1001.4
20200330143122 41 135 1.0 3.0 0.00 0.31 0.31 95 1000.9
20200330142125 41 147 1.0 5.0 0.00 0.31 0.31 95 1000.5
20200330141122 42 139 2.0 5.0 0.00 0.31 0.31 95 1000.2
20200330140123 42 134 2.0 4.0 0.00 0.31 0.31 95 999.8
20200330135124 42 123 3.0 6.0 0.00 0.31 0.31 95 999.8
20200330134121 43 117 2.0 5.0 0.00 0.31 0.31 95 999.5
20200330133134 43 123 2.0 6.0 0.00 0.31 0.31 95 999.1
20200330132120 43 113 3.0 5.0 0.00 0.31 0.31 95 998.6
20200330131121 44 113 1.0 3.0 0.00 0.31 0.31 95 998.2
20200330130120 44 123 2.0 8.0 0.00 0.31 0.31 95 997.7
20200330125121 45 131 2.0 6.0 0.00 0.31 0.31 95 997.7
20200330124121 45 122 2.0 4.0 0.00 0.31 0.31 95 997.5
20200330123121 45 140 3.0 6.0 0.04 0.31 0.31 95 997.2
20200330122120 45 308 4.0 7.0 0.10 0.31 0.31 95 997.0
20200330121126 46 230 3.0 8.0 0.14 0.31 0.31 95 996.9
20200330121120 46 252 3.0 8.0 0.14 0.31 0.31 95 996.9
20200330120121 46 188 3.0 7.0 0.18 0.31 0.31 95 996.7
20200330115121 45 40 5.0 10.0 0.19 0.31 0.31 95 996.7
20200330114122 45 208 4.0 8.0 0.20 0.31 0.31 95 996.8
20200330113121 45 203 4.0 8.0 0.16 0.27 0.27 95 997.1
20200330112123 45 169 4.0 12.0 0.13 0.22 0.22 95 996.8
20200330111121 46 186 5.0 10.0 0.10 0.17 0.17 95 996.5
20200330110121 46 128 5.0 11.0 0.08 0.13 0.13 95 996.8
20200330105122 46 147 3.0 5.0 0.07 0.12 0.12 95 996.8
20200330103121 46 126 4.0 9.0 0.06 0.11 0.11 95 997.0